LIMZ METAR and TAF | Updated Today

LIMZ METAR

Cuneo International Airport

Observation time: 19 min. ago

LIMZ 010750Z AUTO VRB02KT 9999 NCD 11/10 Q1017

Need help? Read our tutorial on how to read METARs or read the parsed version below.

Cuneo International Airport (LIMZ) METAR

  • Weather conditions on Sat, 01 Oct 2022 07:50:00 +0000 (19 min. ago):
  • Present conditions: Dry
  • Clouds: Nil cloud detected
  • Visibility: Greater than 10 km
  • Wind: Variable at 2 knots
  • Temperature: 11 celsius
  • Dew point: 10 celsius
  • Pressure: 1017 millibars
  • Remarks: None


Useful to know...

LIMZ TAF

Cuneo International Airport

TAF LIMZ 010500Z 0106/0206 VRB05KT 9999 FEW030
Observation time: 3:09 hr. ago
Need help? Read our tutorial on how to read TAFs or read the parsed version below.

Parsed version of TAF for Cuneo International Airport (LIMZ)

  • From 01 October at 06:00 UTC, to day 02 of the month at 06:00 UTC
  • Clouds: A few at 914 meters
  • Visibility: Greater than 10 km
  • Wind: Variable at 5